Terminal Aerodrome Forecast
Issued by NWS

Home | Current Version | Previous Version | Text Only | Print | Product List | Glossary On
Versions: 1 2 3 4 5 6 7 8 9 10 11 12 13 14 15 16 17 18 19 20 21 22 23 24 25 26 27 28 29 30
000
FTUS44 KOUN 132339
TAFCSM
TAF
KCSM 132339Z 1400/1424 17016KT P6SM SCT200
     FM140900 23006KT 5SM BR FEW005 BKN200
     FM141100 36013KT P6SM FEW007 BKN200
     FM141500 01016G22KT P6SM BKN200
     FM142000 01010KT P6SM SCT200=

USA.gov is the U.S. government's official web portal to all federal, state and local government web resources and services.